Mooresburg, Pennsylvania
Current Conditions -  °F | °C
As of 4:53 PM on Monday 22 Dec 2014 (Local Time) from KSEG Reporting Station
Light Rain Light Rain  
Wind Chill: 34°   Ceiling: 3600
Heat Index: 34°   Visibility: 9mi
Dew Point: 27°   Wind: 3mph
Humidity: 75%   Direction: 330°NNW
Pressure: 30.19"   Gusts: NA
Location:  41.0117°N, 76.6578°W
Report Text: KSEG 222153Z AUTO 33003KT 9SM -RA BKN036 OVC060 01/M03 A3019 RMK AO2 UPB41E49RAB49 SLP228 P0000 T00111028
Loading
Personal Weather Stations






























Interactive Weather Map New forecast layout! Learn more

10-Day Weather Forecast

Advertisements
Track Severe Weather on mobile